createdAt,value
2018-04-07T00:00:39.425Z,77.60
2018-04-07T00:03:06.967Z,77.10
2018-04-07T00:05:34.509Z,77.10
2018-04-07T00:08:02.040Z,77.30
2018-04-07T00:10:29.599Z,77.60
2018-04-07T00:12:57.175Z,78.10
2018-04-07T00:15:24.734Z,78.40
2018-04-07T00:17:52.291Z,78.10
2018-04-07T00:20:19.868Z,77.90
2018-04-07T00:22:47.420Z,78.50
2018-04-07T00:25:14.963Z,77.90
2018-04-07T00:27:42.516Z,78.40
2018-04-07T00:30:10.090Z,78.70
2018-04-07T00:32:37.661Z,79.40
2018-04-07T00:35:05.987Z,79.80
2018-04-07T00:37:33.534Z,79.70
2018-04-07T00:40:01.125Z,80.10
2018-04-07T00:42:28.673Z,80.00
2018-04-07T00:44:56.244Z,80.80
2018-04-07T00:47:23.795Z,80.40
2018-04-07T00:49:51.348Z,79.90
2018-04-07T00:52:18.933Z,79.60
2018-04-07T00:54:46.466Z,80.00
2018-04-07T00:57:14.813Z,79.20
2018-04-07T00:59:42.377Z,79.10
2018-04-07T01:02:09.925Z,79.50
2018-04-07T01:04:37.457Z,79.60
2018-04-07T01:07:05.030Z,80.30
2018-04-07T01:09:32.588Z,80.00
2018-04-07T01:12:00.173Z,79.70
2018-04-07T01:14:27.717Z,80.20
2018-04-07T01:16:55.270Z,79.80
2018-04-07T01:19:22.815Z,80.20
2018-04-07T01:21:51.147Z,78.80
2018-04-07T01:24:18.716Z,78.80
2018-04-07T01:26:46.255Z,78.30
2018-04-07T01:29:13.828Z,78.10
2018-04-07T01:31:41.375Z,78.90
2018-04-07T01:34:08.918Z,78.90
2018-04-07T01:36:37.257Z,78.90
2018-04-07T01:39:04.830Z,78.90
2018-04-07T01:41:32.388Z,77.60
2018-04-07T01:43:59.511Z,76.30
2018-04-07T01:46:26.607Z,74.60
2018-04-07T01:48:53.752Z,73.70
2018-04-07T01:51:21.316Z,70.50
2018-04-07T01:53:48.869Z,69.10
2018-04-07T01:56:16.437Z,69.70
2018-04-07T01:58:44.808Z,66.90
2018-04-07T02:01:12.365Z,66.90
2018-04-07T02:03:39.970Z,66.50
2018-04-07T02:06:07.555Z,64.80
2018-04-07T02:08:35.891Z,66.70
2018-04-07T02:11:03.444Z,66.60
2018-04-07T02:13:30.993Z,64.70
2018-04-07T02:15:58.565Z,63.70
2018-04-07T02:18:26.126Z,62.70
2018-04-07T02:20:53.745Z,62.50
2018-04-07T02:23:21.294Z,60.70
2018-04-07T02:25:48.858Z,60.10
2018-04-07T02:28:16.409Z,59.60
2018-04-07T02:30:43.948Z,58.70
2018-04-07T02:33:11.519Z,58.10
2018-04-07T02:35:39.114Z,57.70
2018-04-07T02:38:06.661Z,58.20
2018-04-07T02:40:34.208Z,56.90
2018-04-07T02:43:01.744Z,57.60
2018-04-07T02:45:30.086Z,57.20
2018-04-07T02:47:57.655Z,57.20
2018-04-07T02:50:25.263Z,57.00
2018-04-07T02:52:52.773Z,56.40
2018-04-07T02:55:20.317Z,58.20
2018-04-07T02:57:47.843Z,57.20
2018-04-07T03:00:15.404Z,58.30
2018-04-07T03:02:43.725Z,58.60
2018-04-07T03:05:11.260Z,59.20
2018-04-07T03:07:38.847Z,58.60
2018-04-07T03:10:06.390Z,57.60
2018-04-07T03:12:34.717Z,58.40
2018-04-07T03:15:02.292Z,58.40
2018-04-07T03:17:29.856Z,58.90
2018-04-07T03:19:57.414Z,58.90
2018-04-07T03:22:25.753Z,57.60
2018-04-07T03:24:53.287Z,57.80
2018-04-07T03:27:20.838Z,57.80
2018-04-07T03:29:48.390Z,57.90
2018-04-07T03:32:15.956Z,57.80
2018-04-07T03:34:43.500Z,57.50
2018-04-07T03:37:11.050Z,58.00
2018-04-07T03:39:38.592Z,58.10
2018-04-07T03:42:06.936Z,57.90
2018-04-07T03:44:34.498Z,57.90
2018-04-07T03:47:02.061Z,59.10
2018-04-07T03:49:30.386Z,58.90
2018-04-07T03:51:57.957Z,58.90
2018-04-07T03:54:25.507Z,58.90
2018-04-07T03:56:53.853Z,57.80
2018-04-07T03:59:21.404Z,57.80
2018-04-07T04:01:48.934Z,58.80
2018-04-07T04:04:16.501Z,59.00
2018-04-07T04:06:44.071Z,58.00
2018-04-07T04:09:11.658Z,57.50
2018-04-07T04:11:39.229Z,56.80
2018-04-07T04:14:07.565Z,57.10
2018-04-07T04:16:35.152Z,57.10
2018-04-07T04:19:02.687Z,57.00
2018-04-07T04:21:31.016Z,58.40
2018-04-07T04:23:58.561Z,58.40
2018-04-07T04:26:26.140Z,57.40
2018-04-07T04:28:53.682Z,57.70
2018-04-07T04:31:21.232Z,58.80
2018-04-07T04:33:48.843Z,58.00
2018-04-07T04:36:16.408Z,58.30
2018-04-07T04:38:44.000Z,58.50
2018-04-07T04:41:12.352Z,56.80
2018-04-07T04:43:39.928Z,56.80
2018-04-07T04:46:07.515Z,55.90
2018-04-07T04:48:35.825Z,56.70
2018-04-07T04:51:03.369Z,56.70
2018-04-07T04:53:31.685Z,57.30
2018-04-07T04:55:59.249Z,57.30
2018-04-07T04:58:26.864Z,56.10
2018-04-07T05:00:54.418Z,57.50
2018-04-07T05:03:21.997Z,57.10
2018-04-07T05:05:49.557Z,56.50
2018-04-07T05:08:17.088Z,57.40
2018-04-07T05:10:44.633Z,57.70
2018-04-07T05:13:12.253Z,58.20
2018-04-07T05:15:40.603Z,57.70
2018-04-07T05:18:08.189Z,57.70
2018-04-07T05:20:35.728Z,57.10
2018-04-07T05:23:03.271Z,57.80
2018-04-07T05:25:30.813Z,57.00
2018-04-07T05:27:58.355Z,56.10
2018-04-07T05:30:25.912Z,56.60
2018-04-07T05:32:53.465Z,56.80
2018-04-07T05:35:21.006Z,56.10
2018-04-07T05:37:48.576Z,55.80
2018-04-07T05:40:16.135Z,56.10
2018-04-07T05:42:44.453Z,55.80
2018-04-07T05:45:12.016Z,55.70
2018-04-07T05:47:39.575Z,55.00
2018-04-07T05:50:07.121Z,55.50
2018-04-07T05:52:34.684Z,54.60
2018-04-07T05:55:02.248Z,54.30
2018-04-07T05:57:29.799Z,54.20
2018-04-07T05:59:57.370Z,55.10
2018-04-07T06:02:24.936Z,53.40
2018-04-07T06:04:52.540Z,53.50
2018-04-07T06:07:20.857Z,54.50
2018-04-07T06:09:48.402Z,54.50
2018-04-07T06:12:16.011Z,53.80
2018-04-07T06:14:56.338Z,52.30
2018-04-07T06:17:24.553Z,49.20
2018-04-07T06:19:52.107Z,48.40
2018-04-07T06:22:19.751Z,48.60
2018-04-07T06:24:47.278Z,47.10
2018-04-07T06:27:15.575Z,42.90
2018-04-07T06:29:43.178Z,42.80
2018-04-07T06:32:10.749Z,39.00
2018-04-07T06:34:38.307Z,38.90
2018-04-07T06:37:05.873Z,39.50
2018-04-07T06:39:33.419Z,36.80
2018-04-07T06:42:00.980Z,39.50
2018-04-07T06:44:28.551Z,38.00
2018-04-07T06:46:56.126Z,37.60
2018-04-07T06:49:23.691Z,36.80
2018-04-07T06:51:51.261Z,38.90
2018-04-07T06:54:18.830Z,38.20
2018-04-07T06:56:46.377Z,38.50
2018-04-07T06:59:13.952Z,39.70
2018-04-07T07:01:41.520Z,39.90
2018-04-07T07:04:09.145Z,39.80
2018-04-07T07:06:36.709Z,39.60
2018-04-07T07:09:04.292Z,40.90
2018-04-07T07:11:31.857Z,38.20
2018-04-07T07:13:59.395Z,40.00
2018-04-07T07:16:27.724Z,38.70
2018-04-07T07:18:55.362Z,38.70
2018-04-07T07:21:22.941Z,39.40
2018-04-07T07:23:50.539Z,39.10
2018-04-07T07:26:18.125Z,41.00
2018-04-07T07:28:46.447Z,39.90
2018-04-07T07:31:14.011Z,39.90
2018-04-07T07:33:41.583Z,40.50
2018-04-07T07:36:09.151Z,40.80
2018-04-07T07:38:36.741Z,40.00
2018-04-07T07:41:05.092Z,40.30
2018-04-07T07:43:32.659Z,40.30
2018-04-07T07:46:00.546Z,40.30
2018-04-07T07:48:28.097Z,39.80
2018-04-07T07:50:55.635Z,39.90
2018-04-07T07:53:23.196Z,39.40
2018-04-07T07:55:50.770Z,40.00
2018-04-07T07:58:18.321Z,41.00
2018-04-07T08:00:45.894Z,39.20
2018-04-07T08:03:13.446Z,39.50
2018-04-07T08:05:41.017Z,41.10
2018-04-07T08:08:08.608Z,40.80
2018-04-07T08:10:36.166Z,40.70
2018-04-07T08:13:03.762Z,40.00
2018-04-07T08:15:31.313Z,40.80
2018-04-07T08:17:58.872Z,39.80
2018-04-07T08:20:26.432Z,40.90
2018-04-07T08:22:54.001Z,40.80
2018-04-07T08:25:21.576Z,39.60
2018-04-07T08:27:49.155Z,40.00
2018-04-07T08:30:16.692Z,41.70
2018-04-07T08:32:44.485Z,40.60
2018-04-07T08:35:12.163Z,41.10
2018-04-07T08:37:40.503Z,42.00
2018-04-07T08:40:08.060Z,42.00
2018-04-07T08:42:35.598Z,42.50
2018-04-07T08:45:03.132Z,41.20
2018-04-07T08:47:30.684Z,40.30
2018-04-07T08:49:58.246Z,41.30
2018-04-07T08:52:25.790Z,40.80
2018-04-07T08:54:53.389Z,40.40
2018-04-07T08:57:20.983Z,40.30
2018-04-07T08:59:48.552Z,38.90
2018-04-07T09:02:16.152Z,39.00
2018-04-07T09:04:43.724Z,38.80
2018-04-07T09:07:11.288Z,39.80
2018-04-07T09:09:38.872Z,38.40
2018-04-07T09:12:06.446Z,39.00
2018-04-07T09:14:35.519Z,37.60
2018-04-07T09:17:03.895Z,37.90
2018-04-07T09:19:31.508Z,38.40
2018-04-07T09:21:59.832Z,36.80
2018-04-07T09:24:27.407Z,36.80
2018-04-07T09:26:54.970Z,37.20
2018-04-07T09:29:22.551Z,35.50
2018-04-07T09:31:50.116Z,35.50
2018-04-07T09:34:17.665Z,37.40
2018-04-07T09:36:45.233Z,37.10
2018-04-07T09:39:12.785Z,35.10
2018-04-07T09:41:40.333Z,36.00
2018-04-07T09:44:07.927Z,35.20
2018-04-07T09:46:36.298Z,33.90
2018-04-07T09:49:03.848Z,33.90
2018-04-07T09:51:31.416Z,35.30
2018-04-07T09:53:59.788Z,33.40
2018-04-07T09:56:27.366Z,33.40
2018-04-07T09:58:54.940Z,33.90
2018-04-07T10:01:28.103Z,33.90
2018-04-07T10:03:55.677Z,33.50
2018-04-07T10:06:23.220Z,33.90
2018-04-07T10:08:50.840Z,34.80
2018-04-07T10:11:18.430Z,34.50
2018-04-07T10:13:46.771Z,32.30
2018-04-07T10:16:14.315Z,32.20
2018-04-07T10:18:41.879Z,33.90
2018-04-07T10:21:09.465Z,33.90
2018-04-07T10:23:37.008Z,32.80
2018-04-07T10:26:04.603Z,32.10
2018-04-07T10:28:32.176Z,32.80
2018-04-07T10:30:59.725Z,33.90
2018-04-07T10:33:27.263Z,34.30
2018-04-07T10:35:54.817Z,31.60
2018-04-07T10:38:22.383Z,32.80
2018-04-07T10:40:49.946Z,33.30
2018-04-07T10:43:17.497Z,32.70
2018-04-07T10:45:45.799Z,32.40
2018-04-07T10:48:13.345Z,32.30
2018-04-07T10:50:40.917Z,33.90
2018-04-07T10:53:08.459Z,33.30
2018-04-07T10:55:36.792Z,32.50
2018-04-07T10:58:04.391Z,32.40
2018-04-07T11:00:31.945Z,34.60
2018-04-07T11:02:59.514Z,33.00
2018-04-07T11:05:27.075Z,33.40
2018-04-07T11:07:54.639Z,32.90
2018-04-07T11:10:22.311Z,33.30
2018-04-07T11:12:49.892Z,32.40
2018-04-07T11:15:18.212Z,33.10
2018-04-07T11:17:45.782Z,33.10
2018-04-07T11:20:13.321Z,32.30
2018-04-07T11:22:40.928Z,33.90
2018-04-07T11:25:08.480Z,33.90
2018-04-07T11:27:36.068Z,31.20
2018-04-07T11:30:03.653Z,33.20
2018-04-07T11:32:31.227Z,34.20
2018-04-07T11:34:59.564Z,32.60
2018-04-07T11:37:27.121Z,32.50
2018-04-07T11:39:54.693Z,32.40
2018-04-07T11:42:22.273Z,31.50
2018-04-07T11:44:49.871Z,31.40
2018-04-07T11:47:18.189Z,33.20
2018-04-07T11:49:45.755Z,33.20
2018-04-07T11:52:13.342Z,33.00
2018-04-07T11:54:41.027Z,32.10
2018-04-07T11:57:09.381Z,31.50
2018-04-07T11:59:36.987Z,31.90
2018-04-07T12:02:05.334Z,33.60
2018-04-07T12:04:32.893Z,33.60
2018-04-07T12:07:00.457Z,32.00
2018-04-07T12:09:28.027Z,32.20
2018-04-07T12:11:56.509Z,32.90
2018-04-07T12:14:24.061Z,33.30
2018-04-07T12:16:51.630Z,33.50
2018-04-07T12:19:19.220Z,33.40
2018-04-07T12:21:46.814Z,32.70
2018-04-07T12:24:15.184Z,34.50
2018-04-07T12:26:43.506Z,33.90
2018-04-07T12:29:11.072Z,33.90
2018-04-07T12:31:38.650Z,34.00
2018-04-07T12:34:06.207Z,35.30
2018-04-07T12:36:33.761Z,32.90
2018-04-07T12:39:01.353Z,31.40
2018-04-07T12:41:28.911Z,32.00
2018-04-07T12:43:57.251Z,34.50
2018-04-07T12:46:24.832Z,33.80
2018-04-07T12:48:52.376Z,34.80
2018-04-07T12:51:20.745Z,32.70
2018-04-07T12:53:49.069Z,33.40
2018-04-07T12:56:16.654Z,33.40
2018-04-07T12:58:44.234Z,32.10
2018-04-07T13:01:11.840Z,32.90
2018-04-07T13:03:40.223Z,32.50
2018-04-07T13:06:07.778Z,32.50
2018-04-07T13:08:36.120Z,34.80
2018-04-07T13:11:03.664Z,34.90
2018-04-07T13:13:31.241Z,34.90
2018-04-07T13:15:59.594Z,36.80
2018-04-07T13:18:27.165Z,36.80
2018-04-07T13:20:54.740Z,34.50
2018-04-07T13:23:22.317Z,33.50
2018-04-07T13:25:49.914Z,35.10
2018-04-07T13:28:17.533Z,35.50
2018-04-07T13:30:45.119Z,34.60
2018-04-07T13:33:13.492Z,35.30
2018-04-07T13:35:41.032Z,35.30
2018-04-07T13:38:08.576Z,35.70
2018-04-07T13:40:36.936Z,35.80
2018-04-07T13:43:05.248Z,35.40
2018-04-07T13:45:32.797Z,35.10
2018-04-07T13:48:01.158Z,35.10
2018-04-07T13:50:28.740Z,35.10
2018-04-07T13:52:57.073Z,33.10
2018-04-07T13:55:24.631Z,33.00
2018-04-07T13:57:52.210Z,33.40
2018-04-07T14:00:19.786Z,33.80
2018-04-07T14:02:47.336Z,34.30
2018-04-07T14:05:14.903Z,34.20
2018-04-07T14:07:42.444Z,34.70
2018-04-07T14:10:10.024Z,35.80
2018-04-07T14:12:37.568Z,35.80
2018-04-07T14:15:05.133Z,35.50
2018-04-07T14:17:32.690Z,34.70
2018-04-07T14:20:00.264Z,34.70
2018-04-07T14:22:27.805Z,36.00
2018-04-07T14:24:55.375Z,35.80
2018-04-07T14:27:22.946Z,36.30
2018-04-07T14:29:50.500Z,36.20
2018-04-07T14:32:18.050Z,36.20
2018-04-07T14:34:46.383Z,37.90
2018-04-07T14:37:13.923Z,37.90
2018-04-07T14:39:41.485Z,36.90
2018-04-07T14:42:09.056Z,37.40
2018-04-07T14:44:36.638Z,37.10
2018-04-07T14:47:04.182Z,36.50
2018-04-07T14:49:31.725Z,37.10
2018-04-07T14:51:59.297Z,38.70
2018-04-07T14:54:26.876Z,37.80
2018-04-07T14:56:54.461Z,37.70
2018-04-07T14:59:22.037Z,37.20
2018-04-07T15:01:49.585Z,38.80
2018-04-07T15:04:17.288Z,36.80
2018-04-07T15:06:44.831Z,37.60
2018-04-07T15:09:12.385Z,38.00
2018-04-07T15:11:40.035Z,37.80
2018-04-07T15:14:07.658Z,37.90
2018-04-07T15:16:35.985Z,37.80
2018-04-07T15:19:08.102Z,37.70
2018-04-07T15:21:36.445Z,39.00
2018-04-07T15:24:04.060Z,38.40
2018-04-07T15:29:08.131Z,39.50
2018-04-07T15:31:35.688Z,39.50
2018-04-07T15:34:05.941Z,38.30
2018-04-07T15:36:35.853Z,38.30
2018-04-07T15:39:03.463Z,38.30
2018-04-07T15:41:34.498Z,38.80
2018-04-07T15:44:02.061Z,38.90
2018-04-07T15:46:29.604Z,39.60
2018-04-07T15:48:57.143Z,39.10
2018-04-07T15:51:25.738Z,39.20
2018-04-07T15:53:53.316Z,40.40
2018-04-07T15:56:20.887Z,39.30
2018-04-07T15:58:48.451Z,39.10
2018-04-07T16:01:16.042Z,39.20
2018-04-07T16:03:43.637Z,40.20
2018-04-07T16:06:11.242Z,39.80
2018-04-07T16:08:39.031Z,40.10
2018-04-07T16:11:06.610Z,40.30
2018-04-07T16:13:34.183Z,41.50
2018-04-07T16:16:02.516Z,41.10
2018-04-07T16:18:30.061Z,41.10
2018-04-07T16:20:57.611Z,40.80
2018-04-07T16:23:25.194Z,41.20
2018-04-07T16:25:52.769Z,41.40
2018-04-07T16:28:20.342Z,42.00
2018-04-07T16:30:47.919Z,42.20
2018-04-07T16:33:15.528Z,42.60
2018-04-07T16:35:43.865Z,43.20
2018-04-07T16:38:11.464Z,43.20
2018-04-07T16:40:39.790Z,44.40
2018-04-07T16:43:07.341Z,44.40
2018-04-07T16:45:34.904Z,43.90
2018-04-07T16:48:02.483Z,44.20
2018-04-07T16:50:30.081Z,45.60
2018-04-07T16:52:57.689Z,45.10
2018-04-07T16:55:25.269Z,45.30
2018-04-07T16:57:52.847Z,45.40
2018-04-07T17:00:20.424Z,45.60
2018-04-07T17:02:48.834Z,46.60
2018-04-07T17:05:16.459Z,46.90
2018-04-07T17:07:44.061Z,47.80
2018-04-07T17:10:11.619Z,48.60
2018-04-07T17:12:39.187Z,47.80
2018-04-07T17:15:07.641Z,48.40
2018-04-07T17:17:35.228Z,48.40
2018-04-07T17:20:02.837Z,48.20
2018-04-07T17:22:30.413Z,47.90
2018-04-07T17:24:57.969Z,48.20
2018-04-07T17:27:25.545Z,48.80
2018-04-07T17:29:53.157Z,49.30
2018-04-07T17:32:20.712Z,49.40
2018-04-07T17:34:48.275Z,49.80
2018-04-07T17:37:15.824Z,50.00
2018-04-07T17:39:43.447Z,49.70
2018-04-07T17:42:11.045Z,50.00
2018-04-07T17:44:38.641Z,50.10
2018-04-07T17:47:06.188Z,50.30
2018-04-07T17:49:43.607Z,50.70
2018-04-07T17:52:02.216Z,50.70
2018-04-07T17:54:29.787Z,51.10
2018-04-07T17:56:57.342Z,51.10
2018-04-07T17:59:24.947Z,51.10
2018-04-07T18:01:52.506Z,51.50
2018-04-07T18:04:20.844Z,51.50
2018-04-07T18:06:48.894Z,51.50
2018-04-07T18:09:17.223Z,52.20
2018-04-07T18:11:45.772Z,52.20
2018-04-07T18:14:14.099Z,52.20
2018-04-07T18:16:41.663Z,52.20
2018-04-07T18:19:09.252Z,53.50
2018-04-07T18:21:36.816Z,53.70
2018-04-07T18:24:04.369Z,53.20
2018-04-07T18:26:31.945Z,54.20
2018-04-07T18:28:59.516Z,54.60
2018-04-07T18:31:27.071Z,55.30
2018-04-07T18:33:54.627Z,55.30
2018-04-07T18:36:22.283Z,56.80
2018-04-07T18:38:49.857Z,57.00
2018-04-07T18:41:17.416Z,57.40
2018-04-07T18:43:44.970Z,57.30
2018-04-07T18:46:12.503Z,58.60
2018-04-07T18:48:40.128Z,58.30
2018-04-07T18:51:07.696Z,58.50
2018-04-07T18:53:35.268Z,58.80
2018-04-07T18:56:02.818Z,59.20
2018-04-07T18:58:30.396Z,59.30
2018-04-07T19:00:57.977Z,59.60
2018-04-07T19:03:26.286Z,60.00
2018-04-07T19:05:53.833Z,60.00
2018-04-07T19:08:21.428Z,59.60
2018-04-07T19:10:49.024Z,59.80
2018-04-07T19:13:16.577Z,59.80
2018-04-07T19:15:44.119Z,60.00
2018-04-07T19:18:11.678Z,59.80
2018-04-07T19:20:39.266Z,59.40
2018-04-07T19:23:06.840Z,59.30
2018-04-07T19:25:34.392Z,59.70
2018-04-07T19:28:01.981Z,59.50
2018-04-07T19:30:29.595Z,59.60
2018-04-07T19:32:57.192Z,60.50
2018-04-07T19:35:24.775Z,60.00
2018-04-07T19:37:52.351Z,59.80
2018-04-07T19:40:20.663Z,60.30
2018-04-07T19:42:48.261Z,60.20
2018-04-07T19:45:17.089Z,60.30
2018-04-07T19:47:45.419Z,60.70
2018-04-07T19:50:13.042Z,60.70
2018-04-07T19:52:41.400Z,61.80
2018-04-07T19:55:08.965Z,61.80
2018-04-07T19:57:36.521Z,62.00
2018-04-07T20:00:04.177Z,62.00
2018-04-07T20:02:31.757Z,62.10
2018-04-07T20:04:59.402Z,62.40
2018-04-07T20:07:26.981Z,62.70
2018-04-07T20:09:54.560Z,62.90
2018-04-07T20:12:22.129Z,62.60
2018-04-07T20:14:49.671Z,62.40
2018-04-07T20:17:18.012Z,62.60
2018-04-07T20:19:45.608Z,63.20
2018-04-07T20:22:13.241Z,62.30
2018-04-07T20:24:40.796Z,63.10
2018-04-07T20:27:09.109Z,63.20
2018-04-07T20:29:36.689Z,63.10
2018-04-07T20:32:04.274Z,63.10
2018-04-07T20:34:31.847Z,63.40
2018-04-07T20:37:00.244Z,64.70
2018-04-07T20:39:28.597Z,64.00
2018-04-07T20:41:56.208Z,64.00
2018-04-07T20:44:33.766Z,63.80
2018-04-07T20:47:01.349Z,64.20
2018-04-07T20:49:29.676Z,65.10
2018-04-07T20:51:57.286Z,65.10
2018-04-07T20:54:25.669Z,65.50
2018-04-07T20:56:53.997Z,65.70
2018-04-07T20:59:21.585Z,65.60
2018-04-07T21:01:49.334Z,65.60
2018-04-07T21:04:16.924Z,65.90
2018-04-07T21:06:44.497Z,66.60
2018-04-07T21:09:12.063Z,65.60
2018-04-07T21:11:39.629Z,65.60
2018-04-07T21:14:07.186Z,65.50
2018-04-07T21:16:34.763Z,65.70
2018-04-07T21:19:02.384Z,65.70
2018-04-07T21:21:29.938Z,65.40
2018-04-07T21:23:57.489Z,65.80
2018-04-07T21:26:25.045Z,65.70
2018-04-07T21:28:52.605Z,65.70
2018-04-07T21:31:20.928Z,66.30
2018-04-07T21:33:48.499Z,66.30
2018-04-07T21:36:16.053Z,66.40
2018-04-07T21:38:43.621Z,66.50
2018-04-07T21:41:11.946Z,66.60
2018-04-07T21:43:40.286Z,66.10
2018-04-07T21:46:07.878Z,66.60
2018-04-07T21:48:35.507Z,66.90
2018-04-07T21:51:03.056Z,67.00
2018-04-07T21:53:30.632Z,67.20
2018-04-07T21:55:58.200Z,67.60
2018-04-07T21:58:25.766Z,67.30
2018-04-07T22:00:53.348Z,67.10
2018-04-07T22:03:20.904Z,67.60
2018-04-07T22:05:48.501Z,67.30
2018-04-07T22:08:16.108Z,67.50
2018-04-07T22:10:43.730Z,67.50
2018-04-07T22:13:11.303Z,67.60
2018-04-07T22:15:39.664Z,68.90
2018-04-07T22:18:07.236Z,68.30
2018-04-07T22:20:34.820Z,68.60
2018-04-07T22:23:03.160Z,69.00
2018-04-07T22:25:30.748Z,69.00
2018-04-07T22:27:58.311Z,69.00
2018-04-07T22:30:25.906Z,69.10
2018-04-07T22:32:53.490Z,69.50
2018-04-07T22:35:21.052Z,69.70
2018-04-07T22:37:48.630Z,69.80
2018-04-07T22:40:16.189Z,69.80
2018-04-07T22:42:43.756Z,70.20
2018-04-07T22:45:11.323Z,70.40
2018-04-07T22:47:38.870Z,70.20
2018-04-07T22:50:06.436Z,70.00
2018-04-07T22:52:33.979Z,70.00
2018-04-07T22:55:02.318Z,70.20
2018-04-07T22:57:29.876Z,70.20
2018-04-07T22:59:57.447Z,70.20
2018-04-07T23:02:25.062Z,69.60
2018-04-07T23:04:52.608Z,69.70
2018-04-07T23:07:20.928Z,70.50
2018-04-07T23:09:48.473Z,70.50
2018-04-07T23:12:16.058Z,70.30
2018-04-07T23:14:43.642Z,70.50
2018-04-07T23:17:11.274Z,70.70
2018-04-07T23:19:38.848Z,70.30
2018-04-07T23:22:06.429Z,69.90
2018-04-07T23:24:33.988Z,70.20
2018-04-07T23:27:01.565Z,70.20
2018-04-07T23:29:29.116Z,70.00
2018-04-07T23:31:56.750Z,70.00
2018-04-07T23:34:24.338Z,70.30
2018-04-07T23:36:51.903Z,70.40
2018-04-07T23:39:19.513Z,70.50
2018-04-07T23:41:47.097Z,70.60
2018-04-07T23:44:15.489Z,70.80
2018-04-07T23:46:43.078Z,70.70
2018-04-07T23:49:10.660Z,70.90
2018-04-07T23:51:38.232Z,71.10
2018-04-07T23:54:05.798Z,71.00
2018-04-07T23:56:33.339Z,70.80
2018-04-07T23:59:00.913Z,70.90
